Terminal Aerodrome Forecast
Issued by NWS

Home | Current Version | Previous Version | Text Only | Print | Product List | Glossary On
Versions: 1 2 3 4 5 6 7 8 9 10 11 12 13 14 15 16 17 18 19 20 21 22 23 24 25 26 27 28 29 30 31 32 33 34 35 36
000
FTUS45 KCYS 240825 AAA
TAFLAR
TAF AMD
KLAR 240825Z 2408/2506 34017KT P6SM VCSH SCT015 BKN080
      TEMPO 2408/2410 3SM -SN BKN015
     FM241300 35018G28KT P6SM VCSH BKN008
     FM241500 34017G25KT P6SM BKN020
     FM241800 34014KT P6SM SCT060=

USA.gov is the U.S. government's official web portal to all federal, state and local government web resources and services.